PWSweather.com
Personal Weather Stations
Station Observations
LEONMETEO
LeonES 24008

LeonES 24008

Lat: 42.6055559, Lon: -5.5752249

Elevation: 2690

Station Type: La Crosse WS3600

Latest ConditionsUpdated 2:54:42 AM GMT+01:01 Sunday, Sep 25, 2016
Currently Today's Max Today's Min Today's Average
Temperature 57.7°F14.3°C 63.3°F17.4°C 57.3°F14.1°C 59.4°F15.2°C
Dew Point 49.8°F9.9°C 49.8°F9.9°C 46.7°F8.2°C 48.6°F9.2°C
Winds - N16091.8 kmh N Calm Calm - Calm Calm
Wind Gusts -- -- - -
Humidity 76% 76% 56% 68%
Pressure 29.90 in1012.5 mb 29.93 in1013.5 mb 29.83 in1010.2 mb -
Hour Temp Dew Point Humidity Winds Wind Gusts Pressure Precip Precip Rate Daily Precip Total
02:54 AM 57.7°F14.3°C 49.8°F9.9°C 76% - N16091.8 kmh N -- 29.90 in1012.5 mb 0.00 in0.0 mm 0.00 in0.0 mm 0.00 in0.0 mm
02:49 AM 57.7°F14.3°C 49.8°F9.9°C 75% - N16091.8 kmh N -- 29.90 in1012.5 mb 0.00 in0.0 mm 0.00 in0.0 mm 0.00 in0.0 mm
02:44 AM 57.5°F14.2°C 49.6°F9.8°C 75% - N16091.8 kmh N -- 29.90 in1012.5 mb 0.00 in0.0 mm 0.00 in0.0 mm 0.00 in0.0 mm
02:39 AM 57.3°F14.1°C 49.1°F9.5°C 75% - N16091.8 kmh N -- 29.91 in1012.9 mb 0.00 in0.0 mm 0.00 in0.0 mm 0.00 in0.0 mm
02:34 AM 57.3°F14.1°C 49.1°F9.5°C 75% - N16091.8 kmh N -- 29.90 in1012.5 mb 0.00 in0.0 mm 0.00 in0.0 mm 0.00 in0.0 mm
02:29 AM 57.3°F14.1°C 49.1°F9.5°C 75% - N16091.8 kmh N -- 29.90 in1012.5 mb 0.00 in0.0 mm 0.00 in0.0 mm 0.00 in0.0 mm
02:24 AM 57.3°F14.1°C 49.1°F9.5°C 75% - N16091.8 kmh N -- 29.91 in1012.9 mb 0.00 in0.0 mm 0.00 in0.0 mm 0.00 in0.0 mm
02:19 AM 57.3°F14.1°C 49.1°F9.5°C 74% - N16091.8 kmh N -- 29.90 in1012.5 mb 0.00 in0.0 mm 0.00 in0.0 mm 0.00 in0.0 mm
02:14 AM 57.3°F14.1°C 49.1°F9.5°C 74% - N16091.8 kmh N -- 29.91 in1012.9 mb 0.00 in0.0 mm 0.00 in0.0 mm 0.00 in0.0 mm
02:09 AM 57.5°F14.2°C 49.2°F9.6°C 74% - N16091.8 kmh N -- 29.91 in1012.9 mb 0.00 in0.0 mm 0.00 in0.0 mm 0.00 in0.0 mm
02:04 AM 57.7°F14.3°C 49.1°F9.5°C 73% - N16091.8 kmh N -- 29.90 in1012.5 mb 0.00 in0.0 mm 0.00 in0.0 mm 0.00 in0.0 mm
01:59 AM 57.9°F14.4°C 48.9°F9.4°C 73% - N16091.8 kmh N -- 29.90 in1012.5 mb 0.00 in0.0 mm 0.00 in0.0 mm 0.00 in0.0 mm
01:54 AM 57.9°F14.4°C 48.9°F9.4°C 73% - N16091.8 kmh N -- 29.90 in1012.5 mb 0.00 in0.0 mm 0.00 in0.0 mm 0.00 in0.0 mm
01:49 AM 58.1°F14.5°C 49.1°F9.5°C 72% - N16091.8 kmh N -- 29.89 in1012.2 mb 0.00 in0.0 mm 0.00 in0.0 mm 0.00 in0.0 mm
01:44 AM 58.2°F14.6°C 49.2°F9.6°C 72% - N16091.8 kmh N -- 29.89 in1012.2 mb 0.00 in0.0 mm 0.00 in0.0 mm 0.00 in0.0 mm
01:39 AM 58.6°F14.8°C 49.2°F9.6°C 72% - N16091.8 kmh N -- 29.89 in1012.2 mb 0.00 in0.0 mm 0.00 in0.0 mm 0.00 in0.0 mm
01:34 AM 58.6°F14.8°C 49.2°F9.6°C 71% - N16091.8 kmh N -- 29.88 in1011.9 mb 0.00 in0.0 mm 0.00 in0.0 mm 0.00 in0.0 mm
01:29 AM 59.0°F15.0°C 48.4°F9.1°C 71% - N16091.8 kmh N -- 29.87 in1011.5 mb 0.00 in0.0 mm 0.00 in0.0 mm 0.00 in0.0 mm
01:24 AM 59.0°F15.0°C 48.4°F9.1°C 70% - N16091.8 kmh N -- 29.83 in1010.2 mb 0.00 in0.0 mm 0.00 in0.0 mm 0.00 in0.0 mm
01:18 AM 59.0°F15.0°C 48.4°F9.1°C 70% - N16091.8 kmh N -- 29.88 in1011.9 mb 0.00 in0.0 mm 0.00 in0.0 mm 0.00 in0.0 mm
01:13 AM 59.0°F15.0°C 48.4°F9.1°C 69% - N16091.8 kmh N -- 29.90 in1012.5 mb 0.00 in0.0 mm 0.00 in0.0 mm 0.00 in0.0 mm
01:08 AM 59.0°F15.0°C 48.4°F9.1°C 69% - N16091.8 kmh N -- 29.93 in1013.5 mb 0.00 in0.0 mm 0.00 in0.0 mm 0.00 in0.0 mm
01:03 AM 59.3°F15.2°C 48.8°F9.3°C 68% - N16091.8 kmh N -- 29.92 in1013.2 mb 0.00 in0.0 mm 0.00 in0.0 mm 0.00 in0.0 mm
12:58 AM 59.5°F15.3°C 48.5°F9.2°C 67% - N16091.8 kmh N -- 29.91 in1012.9 mb 0.00 in0.0 mm 0.00 in0.0 mm 0.00 in0.0 mm
12:53 AM 59.9°F15.5°C 48.1°F8.9°C 65% - N16091.8 kmh N -- 29.92 in1013.2 mb 0.00 in0.0 mm 0.00 in0.0 mm 0.00 in0.0 mm
12:48 AM 60.4°F15.8°C 48.2°F9.0°C 64% - N16091.8 kmh N -- 29.91 in1012.9 mb 0.00 in0.0 mm 0.00 in0.0 mm 0.00 in0.0 mm
12:43 AM 60.6°F15.9°C 48.0°F8.9°C 63% - N16091.8 kmh N -- 29.92 in1013.2 mb 0.00 in0.0 mm 0.00 in0.0 mm 0.00 in0.0 mm
12:38 AM 61.5°F16.4°C 48.4°F9.1°C 62% - N16091.8 kmh N -- 29.93 in1013.5 mb 0.00 in0.0 mm 0.00 in0.0 mm 0.00 in0.0 mm
12:33 AM 62.2°F16.8°C 48.2°F9.0°C 60% - N16091.8 kmh N -- 29.93 in1013.5 mb 0.00 in0.0 mm 0.00 in0.0 mm 0.00 in0.0 mm
12:28 AM 62.7°F17.1°C 48.2°F9.0°C 59% - N16091.8 kmh N -- 29.93 in1013.5 mb 0.00 in0.0 mm 0.00 in0.0 mm 0.00 in0.0 mm
12:23 AM 63.1°F17.3°C 47.5°F8.6°C 57% - N16091.8 kmh N -- 29.91 in1012.9 mb 0.00 in0.0 mm 0.00 in0.0 mm 0.00 in0.0 mm
12:18 AM 63.3°F17.4°C 47.7°F8.7°C 57% - N16091.8 kmh N -- 29.91 in1012.9 mb 0.00 in0.0 mm 0.00 in0.0 mm 0.00 in0.0 mm
12:13 AM 63.1°F17.3°C 47.5°F8.6°C 57% - N16091.8 kmh N -- 29.91 in1012.9 mb 0.00 in0.0 mm 0.00 in0.0 mm 0.00 in0.0 mm
12:08 AM 62.9°F17.2°C 46.9°F8.3°C 57% - N16091.8 kmh N -- 29.90 in1012.5 mb 0.00 in0.0 mm 0.00 in0.0 mm 0.00 in0.0 mm
12:03 AM 62.7°F17.1°C 46.7°F8.2°C 56% - N16091.8 kmh N -- 29.90 in1012.5 mb 0.00 in0.0 mm 0.00 in0.0 mm 0.00 in0.0 mm